createdAt,value
2023-03-21T06:33:19.341Z,38.78
2023-03-21T06:35:23.724Z,38.5
2023-03-21T06:37:28.193Z,38.26
2023-03-21T06:39:32.594Z,38.12
2023-03-21T06:41:36.972Z,37.95
2023-03-21T06:43:41.439Z,37.78
2023-03-21T06:45:45.856Z,37.5
2023-03-21T06:47:50.399Z,37.38
2023-03-21T06:49:54.902Z,37.3
2023-03-21T06:51:59.339Z,37.19
2023-03-21T06:54:03.900Z,37.08
2023-03-21T06:56:08.321Z,37.02
2023-03-21T06:58:12.725Z,36.89
2023-03-21T07:00:17.120Z,36.72
2023-03-21T07:02:21.606Z,36.69
2023-03-21T07:04:25.966Z,36.65
2023-03-21T07:06:30.376Z,36.71
2023-03-21T07:08:34.796Z,36.62
2023-03-21T07:10:39.192Z,36.5
2023-03-21T07:12:43.630Z,36.65
2023-03-21T07:14:48.030Z,36.24
2023-03-21T07:16:52.670Z,36.12
2023-03-21T07:18:57.254Z,36.41
2023-03-21T07:21:01.783Z,36.31
2023-03-21T07:23:06.230Z,36.86
2023-03-21T07:25:10.945Z,36.93
2023-03-21T07:27:15.420Z,36.6
2023-03-21T07:29:19.895Z,36.75
2023-03-21T07:31:24.488Z,36.67
2023-03-21T07:33:28.971Z,36.56
2023-03-21T07:35:33.448Z,36.91
2023-03-21T07:37:40.089Z,36.81
2023-03-21T07:39:44.526Z,36.62
2023-03-21T07:41:48.965Z,36.63
2023-03-21T07:43:53.533Z,36.73
2023-03-21T07:45:58.237Z,36.75
2023-03-21T07:48:02.998Z,36.62
2023-03-21T07:50:07.472Z,35.48
2023-03-21T07:52:11.863Z,35.08
2023-03-21T07:54:16.262Z,34.92
2023-03-21T07:56:20.656Z,34.81
2023-03-21T07:58:25.139Z,34.75
2023-03-21T08:00:29.768Z,34.75
2023-03-21T08:02:34.337Z,34.49
2023-03-21T08:04:38.824Z,34.46
2023-03-21T08:06:43.190Z,34.63
2023-03-21T08:08:47.637Z,34.52
2023-03-21T08:10:52.056Z,34.41
2023-03-21T08:12:56.582Z,34.43
2023-03-21T08:15:03.338Z,34.88
2023-03-21T08:17:08.234Z,34.9
2023-03-21T08:19:12.632Z,34.85
2023-03-21T08:21:17.047Z,34.98
2023-03-21T08:23:21.523Z,35.03
2023-03-21T08:25:25.980Z,35.1
2023-03-21T08:27:30.339Z,34.88
2023-03-21T08:29:34.815Z,34.73
2023-03-21T08:31:39.232Z,34.38
2023-03-21T08:33:43.697Z,33.92
2023-03-21T08:35:48.786Z,35.06
2023-03-21T08:37:53.244Z,34.24
2023-03-21T08:39:58.158Z,34.22
2023-03-21T08:42:02.606Z,33.97
2023-03-21T08:44:06.993Z,34.25
2023-03-21T08:46:11.677Z,34.01
2023-03-21T08:48:16.365Z,33.97
2023-03-21T08:50:20.944Z,34.04
2023-03-21T08:52:25.330Z,33.92
2023-03-21T08:54:29.798Z,33.95
2023-03-21T08:56:37.371Z,34.08
2023-03-21T08:58:41.944Z,34.57
2023-03-21T09:00:46.490Z,34.04
2023-03-21T09:02:50.884Z,33.83
2023-03-21T09:04:55.508Z,33.89
2023-03-21T09:07:00.004Z,33.89
2023-03-21T09:09:04.470Z,33.73
2023-03-21T09:11:08.963Z,33.94
2023-03-21T09:13:13.403Z,34.22
2023-03-21T09:15:17.893Z,34.03
2023-03-21T09:17:23.504Z,34.15
2023-03-21T09:19:28.039Z,33.6
2023-03-21T09:21:32.452Z,34.92
2023-03-21T09:23:36.850Z,34.55
2023-03-21T09:25:42.009Z,34.28
2023-03-21T09:27:46.386Z,33.89
2023-03-21T09:29:50.783Z,33.81
2023-03-21T09:31:55.294Z,33.71
2023-03-21T09:33:59.787Z,34.15
2023-03-21T09:36:04.323Z,33.9
2023-03-21T09:38:08.744Z,33.91
2023-03-21T09:40:13.135Z,33.85
2023-03-21T09:42:17.952Z,34.01
2023-03-21T09:44:22.350Z,33.42
2023-03-21T09:46:27.007Z,34.24
2023-03-21T09:48:31.374Z,34.77
2023-03-21T09:50:35.712Z,35
2023-03-21T09:52:40.098Z,34.9
2023-03-21T09:54:44.444Z,34.71
2023-03-21T09:56:48.764Z,34.53
2023-03-21T09:58:53.479Z,34.35
2023-03-21T10:00:58.086Z,34.36
2023-03-21T10:03:02.496Z,34.04
2023-03-21T10:05:06.920Z,34.17
2023-03-21T10:07:11.320Z,34.22
2023-03-21T10:09:15.702Z,34.11
2023-03-21T10:11:20.187Z,34.49
2023-03-21T10:13:24.608Z,34.43
2023-03-21T10:15:29.012Z,34.16
2023-03-21T10:17:33.452Z,34.46
2023-03-21T10:19:37.912Z,34.12
2023-03-21T14:03:10.586Z,35.21
2023-03-21T14:05:15.279Z,34.69
2023-03-21T14:07:19.927Z,34.18
2023-03-21T14:09:24.472Z,34.06
2023-03-21T14:11:29.158Z,33.7
2023-03-21T14:13:51.472Z,33.38
2023-03-21T14:15:59.578Z,33.07
2023-03-21T14:18:52.120Z,32.66
2023-03-21T14:20:56.762Z,33.21
2023-03-21T14:23:01.192Z,32.77
2023-03-21T14:25:05.531Z,32.64
2023-03-21T14:27:09.936Z,32.83
2023-03-21T14:29:29.478Z,32.6
2023-03-21T14:31:35.198Z,32.53
2023-03-21T14:33:39.683Z,32.26
2023-03-21T14:35:44.596Z,32.33
2023-03-21T14:37:49.056Z,32.16
2023-03-21T14:39:53.577Z,32.16
2023-03-21T14:41:58.107Z,32.23
2023-03-21T14:44:02.547Z,32.12
2023-03-21T14:46:07.022Z,32.12
2023-03-21T14:48:11.772Z,32.11
2023-03-21T14:50:16.330Z,32.05
2023-03-21T14:52:20.715Z,32.02
2023-03-21T14:54:25.189Z,32.08
2023-03-21T14:56:29.654Z,32.09
2023-03-21T14:58:34.326Z,32.02
2023-03-21T15:00:38.769Z,32.01
2023-03-21T15:02:43.410Z,32.02
2023-03-21T15:04:47.978Z,31.96
2023-03-21T15:06:52.345Z,32.08
2023-03-21T15:08:56.791Z,32.06
2023-03-21T15:11:09.760Z,32
2023-03-21T15:13:14.244Z,32.13
2023-03-21T15:15:18.706Z,32.36
2023-03-21T15:17:23.163Z,32.36
2023-03-21T15:19:27.572Z,32.43
2023-03-21T15:21:32.000Z,32.5
2023-03-21T15:23:36.516Z,32.5
2023-03-21T15:25:42.266Z,32.37
2023-03-21T15:27:46.723Z,32.59
2023-03-21T15:29:51.119Z,32.41
2023-03-21T15:31:55.612Z,32.25
2023-03-21T15:34:00.035Z,32.27
2023-03-21T15:36:04.683Z,32.21
2023-03-21T15:38:09.270Z,32.06
2023-03-21T15:40:13.690Z,32.38
2023-03-21T15:42:18.177Z,32.27
2023-03-21T15:44:22.591Z,32.28
2023-03-21T15:46:27.214Z,32.23
2023-03-21T15:48:31.729Z,32.2
2023-03-21T15:50:36.295Z,32.25
2023-03-21T15:52:40.905Z,32.33
2023-03-21T15:54:45.418Z,32.12
2023-03-21T15:56:49.843Z,32.22
2023-03-21T15:58:54.349Z,32.07
2023-03-21T16:00:59.001Z,31.98
2023-03-21T16:03:03.611Z,32.11
2023-03-21T16:05:08.046Z,32.22
2023-03-21T16:07:12.485Z,32.02
2023-03-21T16:09:16.915Z,32.27
2023-03-21T16:11:21.397Z,32.15
2023-03-21T16:13:25.865Z,32.32
2023-03-21T16:15:30.401Z,32.23
2023-03-21T16:17:34.898Z,32.31
2023-03-21T16:19:39.363Z,32.17
2023-03-21T16:21:43.796Z,32.09
2023-03-21T16:23:48.260Z,32.14
2023-03-21T16:25:52.658Z,32.18
2023-03-21T16:27:57.067Z,32.75
2023-03-21T16:30:01.559Z,32.95
2023-03-21T16:32:06.261Z,33.19
2023-03-21T16:34:10.698Z,33.1
2023-03-21T16:36:15.140Z,33.12
2023-03-21T16:38:19.667Z,33.22
2023-03-21T16:40:24.399Z,33.25
2023-03-21T16:42:28.850Z,33.35
2023-03-21T16:44:33.264Z,33.52
2023-03-21T16:46:37.681Z,33.52
2023-03-21T16:48:42.098Z,33.5
2023-03-21T16:50:46.570Z,33.6
2023-03-21T16:52:51.004Z,33.65
2023-03-21T16:54:55.392Z,33.62
2023-03-21T16:56:59.854Z,33.61
2023-03-21T16:59:04.252Z,33.67
2023-03-21T17:01:08.912Z,33.73
2023-03-21T17:03:13.663Z,33.68
2023-03-21T17:05:18.075Z,33.85
2023-03-21T17:07:22.496Z,33.86
2023-03-21T17:09:26.930Z,33.95
2023-03-21T17:11:31.371Z,33.92
2023-03-21T17:13:35.936Z,34.43
2023-03-21T17:15:40.386Z,34.4
2023-03-21T17:17:44.892Z,34.61
2023-03-21T17:19:49.327Z,34.59
2023-03-21T17:21:53.746Z,34.77
2023-03-21T17:23:58.283Z,35
2023-03-21T17:26:02.720Z,35.44
2023-03-21T17:28:07.146Z,33.52
2023-03-21T17:30:11.743Z,33.75
2023-03-21T17:32:16.185Z,33.65
2023-03-21T17:34:20.794Z,34.16
2023-03-21T17:36:25.324Z,32.87
2023-03-21T17:38:29.740Z,32.55
2023-03-21T17:40:34.097Z,31.89
2023-03-21T17:42:38.574Z,31.86
2023-03-21T17:44:42.983Z,32.15
2023-03-21T17:46:50.253Z,31.89
2023-03-21T17:48:54.863Z,31.67
2023-03-21T17:50:59.286Z,31.72
2023-03-21T17:53:03.775Z,32.22
2023-03-21T17:55:08.196Z,32.14
2023-03-21T17:57:12.697Z,32.3
2023-03-21T17:59:17.143Z,31.88
2023-03-21T18:01:21.665Z,31.64
2023-03-21T18:03:26.073Z,31.27
2023-03-21T18:05:30.549Z,31.37
2023-03-21T18:08:13.217Z,31.23
2023-03-21T18:10:17.639Z,31.17
2023-03-21T18:12:22.005Z,31.2
2023-03-21T18:14:31.990Z,31.25
2023-03-21T18:16:37.178Z,31.04
2023-03-21T18:18:41.646Z,31.05
2023-03-21T18:20:59.747Z,31.46
2023-03-21T18:23:04.330Z,31.88
2023-03-21T18:25:08.722Z,32.13
2023-03-21T18:27:13.210Z,31.63
2023-03-21T18:30:33.060Z,31.58
2023-03-21T18:32:49.089Z,31.88
2023-03-21T18:34:53.538Z,31.71
2023-03-21T18:36:58.250Z,31.71
2023-03-21T18:39:02.631Z,31.63
2023-03-21T18:41:07.369Z,31.71
2023-03-21T18:44:17.415Z,31.71
2023-03-21T18:46:26.098Z,31.7
2023-03-21T18:48:35.755Z,31.69
2023-03-21T18:50:41.225Z,31.67
2023-03-21T18:52:45.668Z,31.77
2023-03-21T18:54:50.420Z,31.76
2023-03-21T18:57:40.517Z,31.79
2023-03-21T18:59:45.003Z,31.81
2023-03-21T19:01:49.983Z,31.81
2023-03-21T19:04:30.669Z,32.64
2023-03-21T19:06:35.277Z,33.25
2023-03-21T19:08:39.788Z,32.41
2023-03-21T19:10:44.427Z,32.9
2023-03-21T19:12:48.913Z,33.09
2023-03-21T19:14:53.305Z,33.5
2023-03-21T19:18:44.918Z,33.85
2023-03-21T19:20:54.950Z,32.94
2023-03-21T19:22:59.383Z,32.72
2023-03-21T19:25:07.213Z,33.19
2023-03-21T19:27:11.821Z,32.92
2023-03-21T19:29:16.893Z,32.89
2023-03-21T19:31:21.571Z,33.07
2023-03-21T19:33:26.012Z,33.1
2023-03-21T19:35:31.380Z,33.42
2023-03-21T19:37:37.522Z,33.98
2023-03-21T19:39:42.053Z,32.8
2023-03-21T19:41:48.043Z,34.5
2023-03-21T19:43:57.759Z,33.95
2023-03-21T19:46:02.434Z,33.25
2023-03-21T19:48:07.576Z,33.05
2023-03-21T19:51:27.238Z,32.91
2023-03-21T19:53:32.651Z,32.64
2023-03-21T19:55:37.159Z,33.31
2023-03-21T19:57:41.557Z,33.32
2023-03-21T19:59:45.972Z,33.88
2023-03-21T20:02:04.876Z,34.22
2023-03-21T20:04:11.162Z,33.15
2023-03-21T20:06:15.633Z,33.48
2023-03-21T20:08:23.027Z,34.86
2023-03-21T20:10:27.587Z,33.62
2023-03-21T20:12:32.129Z,33.37
2023-03-21T20:14:37.204Z,33.14
2023-03-21T20:16:45.827Z,32.83
2023-03-21T20:18:50.488Z,32.98
2023-03-21T20:20:56.620Z,34.14
2023-03-21T20:23:11.700Z,33.25
2023-03-21T20:25:16.122Z,33.63
2023-03-21T20:27:20.550Z,33.69
2023-03-21T20:30:11.690Z,33.78
2023-03-21T20:32:16.105Z,32.96
2023-03-21T20:34:21.304Z,32.71
2023-03-21T20:36:44.554Z,32.68
2023-03-21T20:38:49.033Z,34.25
2023-03-21T20:40:53.589Z,34.48
2023-03-21T20:43:22.377Z,34.93
2023-03-21T20:45:38.409Z,35.31
2023-03-21T20:47:43.151Z,35.52
2023-03-21T20:49:47.580Z,35.71
2023-03-21T20:53:05.791Z,35.01
2023-03-21T20:55:11.038Z,35.53
2023-03-21T20:57:15.535Z,35.88
2023-03-21T20:59:30.252Z,35.64
2023-03-21T21:01:34.779Z,36.06
2023-03-21T21:03:39.237Z,36.03
2023-03-21T21:05:43.865Z,36.29
2023-03-21T21:07:48.401Z,36.09
2023-03-21T21:09:52.906Z,34.67
2023-03-21T21:12:14.541Z,33.23
2023-03-21T21:14:19.254Z,32.93
2023-03-21T21:16:24.129Z,33.21
2023-03-21T21:18:28.564Z,32.89
2023-03-21T21:20:32.988Z,32.99
2023-03-21T21:22:42.837Z,32.87
2023-03-21T21:24:50.019Z,33.21
2023-03-21T21:26:54.454Z,33.02
2023-03-21T21:28:58.986Z,32.53
2023-03-21T21:31:03.551Z,32.63
2023-03-21T21:33:07.985Z,32.75
2023-03-21T21:35:12.477Z,32.49
2023-03-21T21:37:16.951Z,34.15
2023-03-21T21:39:21.341Z,32.47
2023-03-21T21:41:25.755Z,32.39
2023-03-21T21:43:30.159Z,32.43
2023-03-21T21:45:34.729Z,32.52
2023-03-21T21:47:39.306Z,33.08
2023-03-21T21:49:43.721Z,32.36
2023-03-21T21:51:49.919Z,32.55
2023-03-21T21:53:54.319Z,32.24
2023-03-21T21:55:58.830Z,32.28
2023-03-21T21:58:03.232Z,32.22
2023-03-21T22:00:07.995Z,32.25
2023-03-21T22:02:12.402Z,32.34
2023-03-21T22:04:16.833Z,32.84
2023-03-21T22:06:21.226Z,33.21
2023-03-21T22:08:25.685Z,32.75
2023-03-21T22:10:30.077Z,32.59
2023-03-21T22:12:34.602Z,32.41
2023-03-21T22:14:39.016Z,32.5
2023-03-21T22:16:43.665Z,32.46
2023-03-21T22:18:48.122Z,32.33
2023-03-21T22:20:52.540Z,32.35
2023-03-21T22:22:56.990Z,32.47
2023-03-21T22:25:01.381Z,32.47
2023-03-21T22:27:05.780Z,32.42
2023-03-21T22:29:10.270Z,32.42
2023-03-21T22:31:14.885Z,32.44
2023-03-21T22:33:19.296Z,32.39
2023-03-21T22:35:24.187Z,32.36
2023-03-21T22:37:28.671Z,32.38
2023-03-21T22:39:33.241Z,32.46
2023-03-21T22:41:37.641Z,32.34
2023-03-21T22:43:42.064Z,32.46
2023-03-21T22:45:46.648Z,32.34
2023-03-21T22:47:51.282Z,32.39
2023-03-21T22:49:55.690Z,32.37
2023-03-21T22:52:00.519Z,32.35
2023-03-21T22:54:05.144Z,32.31
2023-03-21T22:56:09.598Z,32.3
2023-03-21T22:58:14.057Z,32.29
2023-03-21T23:00:18.458Z,32.34
2023-03-21T23:02:22.878Z,32.28
2023-03-21T23:04:27.543Z,32.19
2023-03-21T23:06:32.018Z,32.27
2023-03-21T23:08:36.494Z,32.29
2023-03-21T23:10:42.591Z,32.21
2023-03-21T23:12:47.300Z,32.32
2023-03-21T23:14:51.700Z,32.28
2023-03-21T23:16:56.100Z,32.2
2023-03-21T23:19:00.480Z,32.22
2023-03-21T23:21:04.887Z,32.25
2023-03-21T23:23:09.358Z,32.25
2023-03-21T23:25:13.824Z,32.29
2023-03-21T23:27:18.380Z,32.33
2023-03-21T23:29:22.811Z,32.34
2023-03-21T23:31:27.388Z,32.27
2023-03-21T23:33:31.823Z,32.27
2023-03-21T23:35:36.365Z,32.34
2023-03-21T23:37:40.815Z,32.33
2023-03-21T23:39:45.320Z,32.42
2023-03-21T23:41:49.760Z,32.47
2023-03-21T23:43:54.215Z,32.31
2023-03-21T23:45:58.762Z,32.37
2023-03-21T23:48:03.394Z,32.42
2023-03-21T23:50:07.890Z,32.37
2023-03-21T23:52:12.295Z,32.4
2023-03-21T23:54:16.667Z,32.48
2023-03-21T23:56:21.188Z,32.52
2023-03-21T23:58:25.576Z,32.51
